sensor_id;sensor_type;location;lat;lon;timestamp;P1;durP1;ratioP1;P2;durP2;ratioP2
9807;SDS011;4943;52.550;13.462;2023-03-01T00:01:18;8.63;;;5.13;;
9807;SDS011;4943;52.550;13.462;2023-03-01T00:03:47;7.30;;;5.00;;
9807;SDS011;4943;52.550;13.462;2023-03-01T00:06:16;6.00;;;3.83;;
9807;SDS011;4943;52.550;13.462;2023-03-01T00:08:46;5.33;;;4.33;;
9807;SDS011;4943;52.550;13.462;2023-03-01T00:11:15;5.40;;;4.30;;
9807;SDS011;4943;52.550;13.462;2023-03-01T00:13:45;9.30;;;5.00;;
9807;SDS011;4943;52.550;13.462;2023-03-01T00:16:14;6.57;;;4.40;;
9807;SDS011;4943;52.550;13.462;2023-03-01T00:18:44;10.63;;;5.70;;
9807;SDS011;4943;52.550;13.462;2023-03-01T00:21:12;5.97;;;4.90;;
9807;SDS011;4943;52.550;13.462;2023-03-01T00:23:40;7.43;;;5.13;;
9807;SDS011;4943;52.550;13.462;2023-03-01T00:26:11;10.63;;;5.77;;
9807;SDS011;4943;52.550;13.462;2023-03-01T00:28:41;11.47;;;5.40;;
9807;SDS011;4943;52.550;13.462;2023-03-01T00:31:10;7.20;;;5.77;;
9807;SDS011;4943;52.550;13.462;2023-03-01T00:33:40;7.30;;;5.23;;
9807;SDS011;4943;52.550;13.462;2023-03-01T00:36:09;8.90;;;5.20;;
9807;SDS011;4943;52.550;13.462;2023-03-01T00:38:39;10.97;;;5.73;;
9807;SDS011;4943;52.550;13.462;2023-03-01T00:41:10;9.80;;;5.93;;
9807;SDS011;4943;52.550;13.462;2023-03-01T00:43:40;8.40;;;5.87;;
9807;SDS011;4943;52.550;13.462;2023-03-01T00:46:09;12.13;;;5.70;;
9807;SDS011;4943;52.550;13.462;2023-03-01T00:48:39;6.00;;;4.83;;
9807;SDS011;4943;52.550;13.462;2023-03-01T00:51:07;8.47;;;5.47;;
9807;SDS011;4943;52.550;13.462;2023-03-01T00:53:37;6.90;;;5.07;;
9807;SDS011;4943;52.550;13.462;2023-03-01T00:56:07;10.17;;;6.00;;
9807;SDS011;4943;52.550;13.462;2023-03-01T00:58:37;7.40;;;5.30;;
9807;SDS011;4943;52.550;13.462;2023-03-01T01:01:08;7.17;;;4.90;;
9807;SDS011;4943;52.550;13.462;2023-03-01T01:03:47;13.47;;;6.77;;
9807;SDS011;4943;52.550;13.462;2023-03-01T01:06:16;9.40;;;5.83;;
9807;SDS011;4943;52.550;13.462;2023-03-01T01:08:46;9.40;;;6.37;;
9807;SDS011;4943;52.550;13.462;2023-03-01T01:11:15;9.27;;;6.07;;
9807;SDS011;4943;52.550;13.462;2023-03-01T01:13:45;8.77;;;5.63;;
9807;SDS011;4943;52.550;13.462;2023-03-01T01:16:15;10.80;;;6.70;;
9807;SDS011;4943;52.550;13.462;2023-03-01T01:18:44;10.20;;;6.37;;
9807;SDS011;4943;52.550;13.462;2023-03-01T01:21:13;14.23;;;8.27;;
9807;SDS011;4943;52.550;13.462;2023-03-01T01:23:43;11.33;;;6.13;;
9807;SDS011;4943;52.550;13.462;2023-03-01T01:26:13;11.73;;;6.57;;
9807;SDS011;4943;52.550;13.462;2023-03-01T01:28:42;12.23;;;6.27;;
9807;SDS011;4943;52.550;13.462;2023-03-01T01:31:12;9.17;;;6.00;;
9807;SDS011;4943;52.550;13.462;2023-03-01T01:33:41;8.13;;;5.67;;
9807;SDS011;4943;52.550;13.462;2023-03-01T01:36:09;10.23;;;6.17;;
9807;SDS011;4943;52.550;13.462;2023-03-01T01:38:37;9.03;;;6.13;;
9807;SDS011;4943;52.550;13.462;2023-03-01T01:41:06;7.27;;;5.30;;
9807;SDS011;4943;52.550;13.462;2023-03-01T01:43:35;8.70;;;7.07;;
9807;SDS011;4943;52.550;13.462;2023-03-01T01:46:06;12.70;;;6.53;;
9807;SDS011;4943;52.550;13.462;2023-03-01T01:48:43;8.60;;;6.23;;
9807;SDS011;4943;52.550;13.462;2023-03-01T01:51:14;10.30;;;5.57;;
9807;SDS011;4943;52.550;13.462;2023-03-01T01:53:46;8.83;;;5.20;;
9807;SDS011;4943;52.550;13.462;2023-03-01T01:56:18;8.43;;;5.37;;
9807;SDS011;4943;52.550;13.462;2023-03-01T01:58:47;11.13;;;6.23;;
9807;SDS011;4943;52.550;13.462;2023-03-01T02:01:17;9.07;;;6.07;;
9807;SDS011;4943;52.550;13.462;2023-03-01T02:03:45;11.43;;;7.00;;
9807;SDS011;4943;52.550;13.462;2023-03-01T02:06:17;11.27;;;6.83;;
9807;SDS011;4943;52.550;13.462;2023-03-01T02:08:47;12.03;;;6.20;;
9807;SDS011;4943;52.550;13.462;2023-03-01T02:11:18;10.50;;;6.50;;
9807;SDS011;4943;52.550;13.462;2023-03-01T02:13:46;10.50;;;6.50;;
9807;SDS011;4943;52.550;13.462;2023-03-01T02:16:16;12.47;;;6.10;;
9807;SDS011;4943;52.550;13.462;2023-03-01T02:18:45;11.40;;;6.63;;
9807;SDS011;4943;52.550;13.462;2023-03-01T02:21:24;12.13;;;7.03;;
9807;SDS011;4943;52.550;13.462;2023-03-01T02:23:59;10.73;;;5.80;;
9807;SDS011;4943;52.550;13.462;2023-03-01T02:26:35;14.43;;;6.00;;
9807;SDS011;4943;52.550;13.462;2023-03-01T02:29:09;7.63;;;5.17;;
9807;SDS011;4943;52.550;13.462;2023-03-01T02:31:37;8.53;;;5.70;;
9807;SDS011;4943;52.550;13.462;2023-03-01T02:34:12;8.60;;;5.43;;
9807;SDS011;4943;52.550;13.462;2023-03-01T02:36:43;11.03;;;6.20;;
9807;SDS011;4943;52.550;13.462;2023-03-01T02:39:15;10.47;;;5.43;;
9807;SDS011;4943;52.550;13.462;2023-03-01T02:41:47;9.13;;;5.90;;
9807;SDS011;4943;52.550;13.462;2023-03-01T02:44:18;9.63;;;6.60;;
9807;SDS011;4943;52.550;13.462;2023-03-01T02:46:48;7.30;;;4.93;;
9807;SDS011;4943;52.550;13.462;2023-03-01T02:49:19;8.00;;;5.17;;
9807;SDS011;4943;52.550;13.462;2023-03-01T02:55:01;10.37;;;6.33;;
9807;SDS011;4943;52.550;13.462;2023-03-01T02:57:32;6.87;;;4.83;;
9807;SDS011;4943;52.550;13.462;2023-03-01T03:00:06;8.27;;;5.47;;
9807;SDS011;4943;52.550;13.462;2023-03-01T03:02:36;6.67;;;5.07;;
9807;SDS011;4943;52.550;13.462;2023-03-01T03:05:06;9.47;;;5.33;;
9807;SDS011;4943;52.550;13.462;2023-03-01T03:07:36;8.53;;;5.17;;
9807;SDS011;4943;52.550;13.462;2023-03-01T03:10:08;9.27;;;5.07;;
9807;SDS011;4943;52.550;13.462;2023-03-01T03:12:38;11.37;;;4.33;;
9807;SDS011;4943;52.550;13.462;2023-03-01T03:15:09;8.17;;;4.23;;
9807;SDS011;4943;52.550;13.462;2023-03-01T03:17:39;7.03;;;4.23;;
9807;SDS011;4943;52.550;13.462;2023-03-01T03:20:11;10.73;;;4.80;;
9807;SDS011;4943;52.550;13.462;2023-03-01T03:22:45;4.87;;;4.33;;
9807;SDS011;4943;52.550;13.462;2023-03-01T03:25:14;7.70;;;4.27;;
9807;SDS011;4943;52.550;13.462;2023-03-01T03:27:43;7.23;;;4.67;;
9807;SDS011;4943;52.550;13.462;2023-03-01T03:30:15;7.97;;;4.57;;
9807;SDS011;4943;52.550;13.462;2023-03-01T03:32:44;7.77;;;4.67;;
9807;SDS011;4943;52.550;13.462;2023-03-01T03:35:18;4.33;;;3.47;;
9807;SDS011;4943;52.550;13.462;2023-03-01T03:37:48;6.07;;;4.60;;
9807;SDS011;4943;52.550;13.462;2023-03-01T03:40:35;9.53;;;5.33;;
9807;SDS011;4943;52.550;13.462;2023-03-01T03:43:05;8.70;;;4.93;;
9807;SDS011;4943;52.550;13.462;2023-03-01T03:45:35;4.83;;;3.60;;
9807;SDS011;4943;52.550;13.462;2023-03-01T03:48:05;9.07;;;4.93;;
9807;SDS011;4943;52.550;13.462;2023-03-01T03:50:35;12.10;;;5.10;;
9807;SDS011;4943;52.550;13.462;2023-03-01T03:53:04;7.60;;;4.37;;
9807;SDS011;4943;52.550;13.462;2023-03-01T03:55:34;4.50;;;3.30;;
9807;SDS011;4943;52.550;13.462;2023-03-01T03:58:06;5.90;;;4.73;;
9807;SDS011;4943;52.550;13.462;2023-03-01T04:00:38;8.07;;;4.67;;
9807;SDS011;4943;52.550;13.462;2023-03-01T04:03:07;8.90;;;4.67;;
9807;SDS011;4943;52.550;13.462;2023-03-01T04:05:36;11.07;;;3.57;;
9807;SDS011;4943;52.550;13.462;2023-03-01T04:08:06;9.57;;;5.77;;
9807;SDS011;4943;52.550;13.462;2023-03-01T04:10:36;6.60;;;4.80;;
9807;SDS011;4943;52.550;13.462;2023-03-01T04:13:05;6.20;;;4.00;;
9807;SDS011;4943;52.550;13.462;2023-03-01T04:15:38;8.80;;;5.67;;
9807;SDS011;4943;52.550;13.462;2023-03-01T04:18:06;7.13;;;5.07;;
9807;SDS011;4943;52.550;13.462;2023-03-01T04:20:36;3.97;;;3.33;;
9807;SDS011;4943;52.550;13.462;2023-03-01T04:23:05;7.90;;;4.20;;
9807;SDS011;4943;52.550;13.462;2023-03-01T04:25:42;10.17;;;5.30;;
9807;SDS011;4943;52.550;13.462;2023-03-01T04:28:15;5.63;;;4.40;;
9807;SDS011;4943;52.550;13.462;2023-03-01T04:30:45;6.30;;;4.10;;
9807;SDS011;4943;52.550;13.462;2023-03-01T04:33:13;7.00;;;5.33;;
9807;SDS011;4943;52.550;13.462;2023-03-01T04:35:41;11.90;;;5.00;;
9807;SDS011;4943;52.550;13.462;2023-03-01T04:38:09;10.17;;;4.43;;
9807;SDS011;4943;52.550;13.462;2023-03-01T04:40:37;9.30;;;4.37;;
9807;SDS011;4943;52.550;13.462;2023-03-01T04:43:09;5.53;;;3.63;;
9807;SDS011;4943;52.550;13.462;2023-03-01T04:45:37;9.20;;;4.93;;
9807;SDS011;4943;52.550;13.462;2023-03-01T04:48:07;5.97;;;4.20;;
9807;SDS011;4943;52.550;13.462;2023-03-01T04:50:35;9.37;;;4.67;;
9807;SDS011;4943;52.550;13.462;2023-03-01T04:53:03;4.70;;;3.73;;
9807;SDS011;4943;52.550;13.462;2023-03-01T04:55:31;6.83;;;4.13;;
9807;SDS011;4943;52.550;13.462;2023-03-01T04:58:00;5.90;;;4.70;;
9807;SDS011;4943;52.550;13.462;2023-03-01T05:00:28;6.13;;;4.97;;
9807;SDS011;4943;52.550;13.462;2023-03-01T05:02:57;9.13;;;3.97;;
9807;SDS011;4943;52.550;13.462;2023-03-01T05:05:30;7.57;;;4.13;;
9807;SDS011;4943;52.550;13.462;2023-03-01T05:08:01;9.50;;;4.90;;
9807;SDS011;4943;52.550;13.462;2023-03-01T05:10:31;5.47;;;4.37;;
9807;SDS011;4943;52.550;13.462;2023-03-01T05:13:02;8.90;;;4.10;;
9807;SDS011;4943;52.550;13.462;2023-03-01T05:15:31;6.80;;;4.93;;
9807;SDS011;4943;52.550;13.462;2023-03-01T05:17:59;7.77;;;4.40;;
9807;SDS011;4943;52.550;13.462;2023-03-01T05:20:29;8.13;;;4.80;;
9807;SDS011;4943;52.550;13.462;2023-03-01T05:22:58;8.73;;;5.23;;
9807;SDS011;4943;52.550;13.462;2023-03-01T05:25:31;7.20;;;4.23;;
9807;SDS011;4943;52.550;13.462;2023-03-01T05:28:00;5.97;;;4.43;;
9807;SDS011;4943;52.550;13.462;2023-03-01T05:30:30;7.30;;;4.00;;
9807;SDS011;4943;52.550;13.462;2023-03-01T05:32:59;5.43;;;4.23;;
9807;SDS011;4943;52.550;13.462;2023-03-01T05:35:28;9.20;;;5.50;;
9807;SDS011;4943;52.550;13.462;2023-03-01T05:37:58;6.60;;;4.57;;
9807;SDS011;4943;52.550;13.462;2023-03-01T05:40:26;6.93;;;4.57;;
9807;SDS011;4943;52.550;13.462;2023-03-01T05:42:55;8.23;;;5.50;;
9807;SDS011;4943;52.550;13.462;2023-03-01T05:45:24;16.33;;;4.77;;
9807;SDS011;4943;52.550;13.462;2023-03-01T05:47:54;9.03;;;5.17;;
9807;SDS011;4943;52.550;13.462;2023-03-01T05:50:23;4.20;;;3.60;;
9807;SDS011;4943;52.550;13.462;2023-03-01T05:52:57;5.70;;;4.77;;
9807;SDS011;4943;52.550;13.462;2023-03-01T05:55:27;6.37;;;4.47;;
9807;SDS011;4943;52.550;13.462;2023-03-01T05:57:57;9.57;;;3.93;;
9807;SDS011;4943;52.550;13.462;2023-03-01T06:00:27;8.60;;;3.53;;
9807;SDS011;4943;52.550;13.462;2023-03-01T06:02:57;6.17;;;3.87;;
9807;SDS011;4943;52.550;13.462;2023-03-01T06:05:26;5.97;;;4.90;;
9807;SDS011;4943;52.550;13.462;2023-03-01T06:07:57;10.17;;;4.97;;
9807;SDS011;4943;52.550;13.462;2023-03-01T06:10:26;8.53;;;4.90;;
9807;SDS011;4943;52.550;13.462;2023-03-01T06:12:55;9.27;;;5.70;;
9807;SDS011;4943;52.550;13.462;2023-03-01T06:15:24;7.93;;;4.97;;
9807;SDS011;4943;52.550;13.462;2023-03-01T06:17:53;8.33;;;3.83;;
9807;SDS011;4943;52.550;13.462;2023-03-01T06:20:25;6.80;;;3.67;;
9807;SDS011;4943;52.550;13.462;2023-03-01T06:22:54;16.20;;;5.00;;
9807;SDS011;4943;52.550;13.462;2023-03-01T06:25:25;6.10;;;4.90;;
9807;SDS011;4943;52.550;13.462;2023-03-01T06:27:54;5.50;;;4.30;;
9807;SDS011;4943;52.550;13.462;2023-03-01T06:30:23;8.03;;;3.87;;
9807;SDS011;4943;52.550;13.462;2023-03-01T06:32:52;9.47;;;4.30;;
9807;SDS011;4943;52.550;13.462;2023-03-01T06:35:26;8.67;;;5.60;;
9807;SDS011;4943;52.550;13.462;2023-03-01T06:37:58;10.10;;;4.93;;
9807;SDS011;4943;52.550;13.462;2023-03-01T06:40:27;8.43;;;5.50;;
9807;SDS011;4943;52.550;13.462;2023-03-01T06:42:57;12.40;;;5.07;;
9807;SDS011;4943;52.550;13.462;2023-03-01T06:45:25;8.87;;;4.70;;
9807;SDS011;4943;52.550;13.462;2023-03-01T06:48:00;9.27;;;6.37;;
9807;SDS011;4943;52.550;13.462;2023-03-01T06:50:29;8.83;;;5.07;;
9807;SDS011;4943;52.550;13.462;2023-03-01T06:52:59;7.00;;;5.03;;
9807;SDS011;4943;52.550;13.462;2023-03-01T06:55:27;10.23;;;5.53;;
9807;SDS011;4943;52.550;13.462;2023-03-01T06:57:55;16.73;;;5.30;;
9807;SDS011;4943;52.550;13.462;2023-03-01T07:00:24;6.63;;;5.90;;
9807;SDS011;4943;52.550;13.462;2023-03-01T07:02:52;8.27;;;5.77;;
9807;SDS011;4943;52.550;13.462;2023-03-01T07:05:21;11.83;;;5.60;;
9807;SDS011;4943;52.550;13.462;2023-03-01T07:07:49;7.10;;;4.87;;
9807;SDS011;4943;52.550;13.462;2023-03-01T07:10:18;7.47;;;5.97;;
9807;SDS011;4943;52.550;13.462;2023-03-01T07:12:46;7.27;;;5.60;;
9807;SDS011;4943;52.550;13.462;2023-03-01T07:15:14;8.60;;;6.60;;
9807;SDS011;4943;52.550;13.462;2023-03-01T07:17:42;9.83;;;5.50;;
9807;SDS011;4943;52.550;13.462;2023-03-01T07:20:11;7.93;;;5.07;;
9807;SDS011;4943;52.550;13.462;2023-03-01T07:22:40;9.60;;;5.23;;
9807;SDS011;4943;52.550;13.462;2023-03-01T07:25:08;12.73;;;6.80;;
9807;SDS011;4943;52.550;13.462;2023-03-01T07:27:37;10.10;;;5.70;;
9807;SDS011;4943;52.550;13.462;2023-03-01T07:30:06;9.37;;;6.07;;
9807;SDS011;4943;52.550;13.462;2023-03-01T07:32:35;8.70;;;6.10;;
9807;SDS011;4943;52.550;13.462;2023-03-01T07:35:04;8.00;;;5.83;;
9807;SDS011;4943;52.550;13.462;2023-03-01T07:37:33;8.17;;;5.47;;
9807;SDS011;4943;52.550;13.462;2023-03-01T07:40:01;8.73;;;5.10;;
9807;SDS011;4943;52.550;13.462;2023-03-01T07:42:29;9.97;;;6.67;;
9807;SDS011;4943;52.550;13.462;2023-03-01T07:44:58;11.47;;;5.17;;
9807;SDS011;4943;52.550;13.462;2023-03-01T07:47:26;10.23;;;5.80;;
9807;SDS011;4943;52.550;13.462;2023-03-01T07:49:54;7.33;;;4.43;;
9807;SDS011;4943;52.550;13.462;2023-03-01T07:52:22;16.50;;;6.03;;
9807;SDS011;4943;52.550;13.462;2023-03-01T07:54:51;6.03;;;5.13;;
9807;SDS011;4943;52.550;13.462;2023-03-01T07:57:19;10.87;;;5.50;;
9807;SDS011;4943;52.550;13.462;2023-03-01T07:59:48;7.67;;;4.33;;
9807;SDS011;4943;52.550;13.462;2023-03-01T08:02:18;8.93;;;5.10;;
9807;SDS011;4943;52.550;13.462;2023-03-01T08:04:46;7.20;;;4.80;;
9807;SDS011;4943;52.550;13.462;2023-03-01T08:07:14;11.77;;;5.20;;
9807;SDS011;4943;52.550;13.462;2023-03-01T08:09:42;10.63;;;5.40;;
9807;SDS011;4943;52.550;13.462;2023-03-01T08:12:10;7.67;;;4.30;;
9807;SDS011;4943;52.550;13.462;2023-03-01T08:14:38;4.67;;;3.93;;
9807;SDS011;4943;52.550;13.462;2023-03-01T08:17:06;4.40;;;4.00;;
9807;SDS011;4943;52.550;13.462;2023-03-01T08:19:35;4.97;;;3.27;;
9807;SDS011;4943;52.550;13.462;2023-03-01T08:22:04;10.07;;;4.23;;
9807;SDS011;4943;52.550;13.462;2023-03-01T08:24:32;6.23;;;3.73;;
9807;SDS011;4943;52.550;13.462;2023-03-01T08:27:00;7.93;;;4.80;;
9807;SDS011;4943;52.550;13.462;2023-03-01T08:29:30;5.47;;;3.70;;
9807;SDS011;4943;52.550;13.462;2023-03-01T08:31:58;8.20;;;3.97;;
9807;SDS011;4943;52.550;13.462;2023-03-01T08:34:26;5.40;;;3.23;;
9807;SDS011;4943;52.550;13.462;2023-03-01T08:36:56;6.80;;;3.57;;
9807;SDS011;4943;52.550;13.462;2023-03-01T08:39:24;3.73;;;2.83;;
9807;SDS011;4943;52.550;13.462;2023-03-01T08:41:52;4.97;;;3.37;;
9807;SDS011;4943;52.550;13.462;2023-03-01T08:44:20;3.13;;;2.37;;
9807;SDS011;4943;52.550;13.462;2023-03-01T08:46:48;5.73;;;3.83;;
9807;SDS011;4943;52.550;13.462;2023-03-01T08:49:18;7.57;;;2.80;;
9807;SDS011;4943;52.550;13.462;2023-03-01T08:51:47;3.97;;;2.40;;
9807;SDS011;4943;52.550;13.462;2023-03-01T08:54:17;3.97;;;2.83;;
9807;SDS011;4943;52.550;13.462;2023-03-01T08:56:46;8.87;;;4.50;;
9807;SDS011;4943;52.550;13.462;2023-03-01T08:59:15;4.87;;;2.30;;
9807;SDS011;4943;52.550;13.462;2023-03-01T09:01:44;4.33;;;2.33;;
9807;SDS011;4943;52.550;13.462;2023-03-01T09:04:12;6.00;;;1.80;;
9807;SDS011;4943;52.550;13.462;2023-03-01T09:06:42;4.73;;;2.23;;
9807;SDS011;4943;52.550;13.462;2023-03-01T09:09:12;3.97;;;2.10;;
9807;SDS011;4943;52.550;13.462;2023-03-01T09:11:44;3.37;;;2.60;;
9807;SDS011;4943;52.550;13.462;2023-03-01T09:14:13;4.17;;;2.47;;
9807;SDS011;4943;52.550;13.462;2023-03-01T09:16:41;4.73;;;2.57;;
9807;SDS011;4943;52.550;13.462;2023-03-01T09:19:10;2.77;;;2.33;;
9807;SDS011;4943;52.550;13.462;2023-03-01T09:21:38;5.07;;;3.23;;
9807;SDS011;4943;52.550;13.462;2023-03-01T09:24:08;3.67;;;3.37;;
9807;SDS011;4943;52.550;13.462;2023-03-01T09:26:40;5.37;;;3.50;;
9807;SDS011;4943;52.550;13.462;2023-03-01T09:29:09;4.80;;;3.77;;
9807;SDS011;4943;52.550;13.462;2023-03-01T09:31:37;4.73;;;3.10;;
9807;SDS011;4943;52.550;13.462;2023-03-01T09:34:06;5.03;;;2.30;;
9807;SDS011;4943;52.550;13.462;2023-03-01T09:36:35;6.20;;;3.43;;
9807;SDS011;4943;52.550;13.462;2023-03-01T09:39:04;2.57;;;1.67;;
9807;SDS011;4943;52.550;13.462;2023-03-01T09:44:29;3.23;;;2.93;;
9807;SDS011;4943;52.550;13.462;2023-03-01T09:47:02;5.80;;;5.30;;
9807;SDS011;4943;52.550;13.462;2023-03-01T09:49:32;2.13;;;1.93;;
9807;SDS011;4943;52.550;13.462;2023-03-01T09:52:03;2.70;;;2.50;;
9807;SDS011;4943;52.550;13.462;2023-03-01T09:54:39;4.47;;;3.53;;
9807;SDS011;4943;52.550;13.462;2023-03-01T09:57:14;5.03;;;3.77;;
9807;SDS011;4943;52.550;13.462;2023-03-01T09:59:59;4.27;;;3.47;;
9807;SDS011;4943;52.550;13.462;2023-03-01T10:02:38;3.27;;;3.00;;
9807;SDS011;4943;52.550;13.462;2023-03-01T10:05:14;6.93;;;4.67;;
9807;SDS011;4943;52.550;13.462;2023-03-01T10:07:56;7.83;;;5.87;;
9807;SDS011;4943;52.550;13.462;2023-03-01T10:10:34;1.57;;;1.47;;
9807;SDS011;4943;52.550;13.462;2023-03-01T10:13:08;4.40;;;2.87;;
9807;SDS011;4943;52.550;13.462;2023-03-01T10:15:45;4.50;;;2.53;;
9807;SDS011;4943;52.550;13.462;2023-03-01T10:18:22;4.07;;;2.20;;
9807;SDS011;4943;52.550;13.462;2023-03-01T10:20:53;3.80;;;1.60;;
9807;SDS011;4943;52.550;13.462;2023-03-01T10:23:25;9.30;;;6.23;;
9807;SDS011;4943;52.550;13.462;2023-03-01T10:25:57;6.27;;;5.27;;
9807;SDS011;4943;52.550;13.462;2023-03-01T10:28:41;6.67;;;6.10;;
9807;SDS011;4943;52.550;13.462;2023-03-01T10:31:20;6.37;;;5.77;;
9807;SDS011;4943;52.550;13.462;2023-03-01T10:33:55;7.63;;;6.27;;
9807;SDS011;4943;52.550;13.462;2023-03-01T10:36:25;4.20;;;3.90;;
9807;SDS011;4943;52.550;13.462;2023-03-01T10:38:53;9.40;;;8.63;;
9807;SDS011;4943;52.550;13.462;2023-03-01T10:41:24;7.43;;;6.53;;
9807;SDS011;4943;52.550;13.462;2023-03-01T10:43:55;7.50;;;6.80;;
9807;SDS011;4943;52.550;13.462;2023-03-01T10:46:29;7.53;;;6.93;;
9807;SDS011;4943;52.550;13.462;2023-03-01T10:49:05;7.27;;;6.53;;
9807;SDS011;4943;52.550;13.462;2023-03-01T10:51:47;10.07;;;7.43;;
9807;SDS011;4943;52.550;13.462;2023-03-01T10:54:17;9.63;;;8.27;;
9807;SDS011;4943;52.550;13.462;2023-03-01T10:56:47;8.50;;;7.13;;
9807;SDS011;4943;52.550;13.462;2023-03-01T10:59:24;8.37;;;7.53;;
9807;SDS011;4943;52.550;13.462;2023-03-01T11:02:03;5.67;;;5.13;;
9807;SDS011;4943;52.550;13.462;2023-03-01T11:05:00;4.97;;;4.50;;
9807;SDS011;4943;52.550;13.462;2023-03-01T11:07:29;12.27;;;9.17;;
9807;SDS011;4943;52.550;13.462;2023-03-01T11:09:58;2.40;;;1.70;;
9807;SDS011;4943;52.550;13.462;2023-03-01T11:12:26;6.87;;;6.43;;
9807;SDS011;4943;52.550;13.462;2023-03-01T11:14:55;14.27;;;11.23;;
9807;SDS011;4943;52.550;13.462;2023-03-01T11:17:27;10.07;;;9.20;;
9807;SDS011;4943;52.550;13.462;2023-03-01T11:20:07;9.97;;;9.00;;
9807;SDS011;4943;52.550;13.462;2023-03-01T11:22:49;8.00;;;7.23;;
9807;SDS011;4943;52.550;13.462;2023-03-01T11:25:21;10.37;;;9.00;;
9807;SDS011;4943;52.550;13.462;2023-03-01T11:27:53;6.50;;;5.90;;
9807;SDS011;4943;52.550;13.462;2023-03-01T11:30:24;10.43;;;9.50;;
9807;SDS011;4943;52.550;13.462;2023-03-01T11:33:05;12.57;;;8.20;;
9807;SDS011;4943;52.550;13.462;2023-03-01T11:35:41;11.13;;;10.00;;
9807;SDS011;4943;52.550;13.462;2023-03-01T11:38:15;6.40;;;5.90;;
9807;SDS011;4943;52.550;13.462;2023-03-01T11:40:49;10.93;;;9.90;;
9807;SDS011;4943;52.550;13.462;2023-03-01T11:43:26;9.13;;;8.20;;
9807;SDS011;4943;52.550;13.462;2023-03-01T11:46:08;10.40;;;9.30;;
9807;SDS011;4943;52.550;13.462;2023-03-01T11:49:02;15.97;;;14.60;;
9807;SDS011;4943;52.550;13.462;2023-03-01T11:51:54;8.60;;;7.73;;
9807;SDS011;4943;52.550;13.462;2023-03-01T11:54:33;7.27;;;6.60;;
9807;SDS011;4943;52.550;13.462;2023-03-01T11:57:12;5.77;;;5.27;;
9807;SDS011;4943;52.550;13.462;2023-03-01T11:59:55;8.07;;;7.23;;
9807;SDS011;4943;52.550;13.462;2023-03-01T12:02:37;5.90;;;5.50;;
9807;SDS011;4943;52.550;13.462;2023-03-01T12:05:31;7.57;;;6.80;;
9807;SDS011;4943;52.550;13.462;2023-03-01T12:08:12;7.47;;;6.70;;
9807;SDS011;4943;52.550;13.462;2023-03-01T12:10:48;6.13;;;5.63;;
9807;SDS011;4943;52.550;13.462;2023-03-01T12:13:27;6.53;;;5.90;;
9807;SDS011;4943;52.550;13.462;2023-03-01T12:16:20;8.77;;;7.30;;
9807;SDS011;4943;52.550;13.462;2023-03-01T12:19:07;6.80;;;6.17;;
9807;SDS011;4943;52.550;13.462;2023-03-01T12:21:53;5.97;;;4.73;;
9807;SDS011;4943;52.550;13.462;2023-03-01T12:24:37;6.33;;;5.27;;
9807;SDS011;4943;52.550;13.462;2023-03-01T12:27:24;8.97;;;6.87;;
9807;SDS011;4943;52.550;13.462;2023-03-01T12:30:14;9.87;;;7.47;;
9807;SDS011;4943;52.550;13.462;2023-03-01T12:32:53;6.40;;;5.80;;
9807;SDS011;4943;52.550;13.462;2023-03-01T12:35:35;3.73;;;3.53;;
9807;SDS011;4943;52.550;13.462;2023-03-01T12:38:22;4.43;;;4.07;;
9807;SDS011;4943;52.550;13.462;2023-03-01T12:41:05;6.60;;;6.10;;
9807;SDS011;4943;52.550;13.462;2023-03-01T12:43:47;7.30;;;6.53;;
9807;SDS011;4943;52.550;13.462;2023-03-01T12:46:25;2.80;;;2.60;;
9807;SDS011;4943;52.550;13.462;2023-03-01T12:49:05;4.93;;;4.20;;
9807;SDS011;4943;52.550;13.462;2023-03-01T12:51:37;2.80;;;2.33;;
9807;SDS011;4943;52.550;13.462;2023-03-01T12:54:11;3.03;;;2.40;;
9807;SDS011;4943;52.550;13.462;2023-03-01T12:56:43;3.37;;;3.13;;
9807;SDS011;4943;52.550;13.462;2023-03-01T12:59:19;2.57;;;2.37;;
9807;SDS011;4943;52.550;13.462;2023-03-01T13:01:53;2.77;;;1.83;;
9807;SDS011;4943;52.550;13.462;2023-03-01T13:04:32;4.57;;;1.50;;
9807;SDS011;4943;52.550;13.462;2023-03-01T13:07:13;1.77;;;1.13;;
9807;SDS011;4943;52.550;13.462;2023-03-01T13:09:54;1.90;;;1.20;;
9807;SDS011;4943;52.550;13.462;2023-03-01T13:12:43;1.47;;;1.30;;
9807;SDS011;4943;52.550;13.462;2023-03-01T13:15:26;1.27;;;1.10;;
9807;SDS011;4943;52.550;13.462;2023-03-01T13:17:58;3.33;;;1.17;;
9807;SDS011;4943;52.550;13.462;2023-03-01T13:20:30;1.10;;;0.83;;
9807;SDS011;4943;52.550;13.462;2023-03-01T13:23:01;0.70;;;0.70;;
9807;SDS011;4943;52.550;13.462;2023-03-01T13:25:34;1.33;;;0.90;;
9807;SDS011;4943;52.550;13.462;2023-03-01T13:28:36;1.30;;;1.00;;
9807;SDS011;4943;52.550;13.462;2023-03-01T13:34:40;5.30;;;1.80;;
9807;SDS011;4943;52.550;13.462;2023-03-01T13:37:23;1.47;;;1.10;;
9807;SDS011;4943;52.550;13.462;2023-03-01T13:39:59;5.00;;;1.50;;
9807;SDS011;4943;52.550;13.462;2023-03-01T13:42:43;2.17;;;1.30;;
9807;SDS011;4943;52.550;13.462;2023-03-01T13:45:27;1.67;;;0.83;;
9807;SDS011;4943;52.550;13.462;2023-03-01T13:48:08;1.53;;;1.27;;
9807;SDS011;4943;52.550;13.462;2023-03-01T13:50:43;1.87;;;1.43;;
9807;SDS011;4943;52.550;13.462;2023-03-01T13:53:16;2.77;;;1.10;;
9807;SDS011;4943;52.550;13.462;2023-03-01T13:55:46;2.17;;;1.20;;
9807;SDS011;4943;52.550;13.462;2023-03-01T13:58:22;1.20;;;1.10;;
9807;SDS011;4943;52.550;13.462;2023-03-01T14:00:56;2.70;;;1.90;;
9807;SDS011;4943;52.550;13.462;2023-03-01T14:03:27;1.50;;;1.40;;
9807;SDS011;4943;52.550;13.462;2023-03-01T14:06:02;5.13;;;2.50;;
9807;SDS011;4943;52.550;13.462;2023-03-01T14:08:41;1.63;;;1.53;;
9807;SDS011;4943;52.550;13.462;2023-03-01T14:17:17;2.43;;;1.50;;
9807;SDS011;4943;52.550;13.462;2023-03-01T14:20:08;2.13;;;0.90;;
9807;SDS011;4943;52.550;13.462;2023-03-01T14:22:40;1.50;;;1.20;;
9807;SDS011;4943;52.550;13.462;2023-03-01T14:25:23;4.23;;;1.70;;
9807;SDS011;4943;52.550;13.462;2023-03-01T14:27:56;1.37;;;1.07;;
9807;SDS011;4943;52.550;13.462;2023-03-01T14:30:31;1.07;;;1.00;;
9807;SDS011;4943;52.550;13.462;2023-03-01T14:33:03;4.03;;;1.87;;
9807;SDS011;4943;52.550;13.462;2023-03-01T14:35:33;6.53;;;1.80;;
9807;SDS011;4943;52.550;13.462;2023-03-01T14:38:03;4.30;;;1.10;;
9807;SDS011;4943;52.550;13.462;2023-03-01T14:40:32;3.77;;;1.73;;
9807;SDS011;4943;52.550;13.462;2023-03-01T14:43:03;4.93;;;2.33;;
9807;SDS011;4943;52.550;13.462;2023-03-01T14:45:39;4.47;;;1.17;;
9807;SDS011;4943;52.550;13.462;2023-03-01T14:48:07;2.10;;;1.50;;
9807;SDS011;4943;52.550;13.462;2023-03-01T14:50:36;4.80;;;2.47;;
9807;SDS011;4943;52.550;13.462;2023-03-01T14:53:12;2.47;;;1.77;;
9807;SDS011;4943;52.550;13.462;2023-03-01T14:55:46;3.53;;;1.87;;
9807;SDS011;4943;52.550;13.462;2023-03-01T14:58:20;3.97;;;2.07;;
9807;SDS011;4943;52.550;13.462;2023-03-01T15:00:52;2.03;;;1.40;;
9807;SDS011;4943;52.550;13.462;2023-03-01T15:03:26;2.23;;;1.40;;
9807;SDS011;4943;52.550;13.462;2023-03-01T15:05:58;1.70;;;1.10;;
9807;SDS011;4943;52.550;13.462;2023-03-01T15:08:28;2.73;;;1.60;;
9807;SDS011;4943;52.550;13.462;2023-03-01T15:11:01;2.73;;;1.40;;
9807;SDS011;4943;52.550;13.462;2023-03-01T15:13:34;2.37;;;1.70;;
9807;SDS011;4943;52.550;13.462;2023-03-01T15:16:08;2.80;;;1.60;;
9807;SDS011;4943;52.550;13.462;2023-03-01T15:18:42;1.40;;;1.30;;
9807;SDS011;4943;52.550;13.462;2023-03-01T15:21:16;8.70;;;3.30;;
9807;SDS011;4943;52.550;13.462;2023-03-01T15:23:48;2.50;;;1.33;;
9807;SDS011;4943;52.550;13.462;2023-03-01T15:26:23;3.97;;;1.80;;
9807;SDS011;4943;52.550;13.462;2023-03-01T15:28:54;1.33;;;1.23;;
9807;SDS011;4943;52.550;13.462;2023-03-01T15:31:27;3.73;;;1.50;;
9807;SDS011;4943;52.550;13.462;2023-03-01T15:34:10;3.20;;;2.27;;
9807;SDS011;4943;52.550;13.462;2023-03-01T15:36:48;1.57;;;1.20;;
9807;SDS011;4943;52.550;13.462;2023-03-01T15:42:09;5.33;;;2.80;;
9807;SDS011;4943;52.550;13.462;2023-03-01T15:44:39;2.47;;;1.73;;
9807;SDS011;4943;52.550;13.462;2023-03-01T15:47:26;3.80;;;1.63;;